createdAt,value
2023-01-01T00:00:19.754Z,70.68
2023-01-01T00:02:47.394Z,71.09
2023-01-01T00:05:14.753Z,70.46
2023-01-01T00:07:42.184Z,70.72
2023-01-01T00:10:29.033Z,70.45
2023-01-01T00:12:59.144Z,70.48
2023-01-01T00:15:27.024Z,70.45
2023-01-01T00:17:54.442Z,70.53
2023-01-01T00:20:21.887Z,70.60
2023-01-01T00:22:56.886Z,70.18
2023-01-01T00:25:24.897Z,70.32
2023-01-01T00:27:52.599Z,71.10
2023-01-01T00:30:20.041Z,71.18
2023-01-01T00:32:54.389Z,70.60
2023-01-01T00:35:25.890Z,70.78
2023-01-01T00:37:53.834Z,71.12
2023-01-01T00:40:21.247Z,71.38
2023-01-01T00:42:48.876Z,71.99
2023-01-01T00:45:21.379Z,71.10
2023-01-01T00:47:50.818Z,70.91
2023-01-01T00:50:18.370Z,70.63
2023-01-01T00:52:45.792Z,69.96
2023-01-01T00:55:13.456Z,70.25
2023-01-01T00:57:40.949Z,70.40
2023-01-01T01:00:09.233Z,70.29
2023-01-01T01:02:37.178Z,70.01
2023-01-01T01:05:05.044Z,70.56
2023-01-01T01:07:38.664Z,70.29
2023-01-01T01:10:06.690Z,70.89
2023-01-01T01:12:34.738Z,71.14
2023-01-01T01:15:02.399Z,71.26
2023-01-01T01:17:31.193Z,71.02
2023-01-01T01:19:58.560Z,70.28
2023-01-01T01:22:28.712Z,70.19
2023-01-01T01:24:57.417Z,70.10
2023-01-01T01:27:24.832Z,70.44
2023-01-01T01:29:52.436Z,70.78
2023-01-01T01:32:20.264Z,69.95
2023-01-01T01:34:47.601Z,70.58
2023-01-01T01:37:15.055Z,70.36
2023-01-01T01:39:42.712Z,70.22
2023-01-01T01:42:16.926Z,70.98
2023-01-01T01:44:52.021Z,71.34
2023-01-01T01:47:38.022Z,70.35
2023-01-01T01:50:13.607Z,71.48
2023-01-01T01:52:43.237Z,70.54
2023-01-01T01:55:10.917Z,70.25
2023-01-01T01:57:39.384Z,70.32
2023-01-01T02:00:11.239Z,70.39
2023-01-01T02:02:50.112Z,70.87
2023-01-01T02:05:18.374Z,70.71
2023-01-01T02:07:46.084Z,70.10
2023-01-01T02:10:13.461Z,70.75
2023-01-01T02:12:40.887Z,70.34
2023-01-01T02:15:09.418Z,70.63
2023-01-01T02:17:59.151Z,70.10
2023-01-01T02:20:38.314Z,70.25
2023-01-01T02:23:39.602Z,69.92
2023-01-01T02:26:42.500Z,71.01
2023-01-01T02:29:33.570Z,70.65
2023-01-01T02:32:22.870Z,71.23
2023-01-01T02:34:58.118Z,70.60
2023-01-01T02:37:25.880Z,70.67
2023-01-01T02:39:55.523Z,70.42
2023-01-01T02:42:25.018Z,70.85
2023-01-01T02:44:53.805Z,70.54
2023-01-01T02:47:21.172Z,71.26
2023-01-01T02:49:55.857Z,71.79
2023-01-01T02:52:42.682Z,70.80
2023-01-01T02:55:16.024Z,71.00
2023-01-01T02:57:47.018Z,71.25
2023-01-01T03:00:27.924Z,71.23
2023-01-01T03:03:14.826Z,71.26
2023-01-01T03:06:22.981Z,70.91
2023-01-01T03:09:02.803Z,70.68
2023-01-01T03:11:43.229Z,71.00
2023-01-01T03:14:33.291Z,71.59
2023-01-01T03:17:05.051Z,71.83
2023-01-01T03:19:37.287Z,71.04
2023-01-01T03:22:10.483Z,70.97
2023-01-01T03:24:52.831Z,71.27
2023-01-01T03:27:32.108Z,71.39
2023-01-01T03:30:01.872Z,70.95
2023-01-01T03:32:51.898Z,70.94
2023-01-01T03:35:20.498Z,71.69
2023-01-01T03:37:49.334Z,70.83
2023-01-01T03:40:17.930Z,70.83
2023-01-01T03:42:49.571Z,70.90
2023-01-01T03:45:26.507Z,70.61
2023-01-01T03:47:54.746Z,70.99
2023-01-01T03:50:22.556Z,70.65
2023-01-01T03:53:10.718Z,69.54
2023-01-01T03:55:46.112Z,70.81
2023-01-01T03:58:35.499Z,70.56
2023-01-01T04:01:07.762Z,70.46
2023-01-01T04:03:35.424Z,70.58
2023-01-01T04:06:03.107Z,71.21
2023-01-01T04:08:32.884Z,70.76
2023-01-01T04:11:01.072Z,70.83
2023-01-01T04:13:28.511Z,71.44
2023-01-01T04:15:55.997Z,70.55
2023-01-01T04:18:23.749Z,70.59
2023-01-01T04:20:51.143Z,70.67
2023-01-01T04:23:18.535Z,70.23
2023-01-01T04:25:46.278Z,70.12
2023-01-01T04:28:13.851Z,70.34
2023-01-01T04:33:07.706Z,70.25
2023-01-01T04:35:35.084Z,70.36
2023-01-01T04:38:03.787Z,70.44
2023-01-01T04:40:31.386Z,70.22
2023-01-01T04:42:58.745Z,71.11
2023-01-01T04:45:26.175Z,70.85
2023-01-01T04:47:53.874Z,70.65
2023-01-01T04:50:21.256Z,70.45
2023-01-01T04:52:51.325Z,70.28
2023-01-01T04:55:20.741Z,69.83
2023-01-01T04:57:48.136Z,69.86
2023-01-01T05:00:15.661Z,70.44
2023-01-01T05:02:43.506Z,70.50
2023-01-01T05:05:10.994Z,70.16
2023-01-01T05:07:38.410Z,69.89
2023-01-01T05:10:06.533Z,69.43
2023-01-01T05:12:33.980Z,69.78
2023-01-01T05:15:01.335Z,70.02
2023-01-01T05:17:29.246Z,70.75
2023-01-01T05:19:56.604Z,70.49
2023-01-01T05:22:23.945Z,70.47
2023-01-01T05:24:51.597Z,70.44
2023-01-01T05:27:19.138Z,70.77
2023-01-01T05:29:46.562Z,71.10
2023-01-01T05:34:40.459Z,70.57
2023-01-01T05:37:07.956Z,70.37
2023-01-01T05:39:37.182Z,70.62
2023-01-01T05:42:04.521Z,70.31
2023-01-01T05:44:31.852Z,71.15
2023-01-01T05:47:00.041Z,70.57
2023-01-01T05:49:28.303Z,70.22
2023-01-01T05:51:55.673Z,71.52
2023-01-01T05:54:23.469Z,71.36
2023-01-01T05:56:50.893Z,70.85
2023-01-01T05:59:18.326Z,70.52
2023-01-01T06:01:46.421Z,71.49
2023-01-01T06:04:14.586Z,72.20
2023-01-01T06:06:42.247Z,72.13
2023-01-01T06:09:09.909Z,71.25
2023-01-01T06:11:37.563Z,70.89
2023-01-01T06:14:04.922Z,70.58
2023-01-01T06:16:32.422Z,70.10
2023-01-01T06:19:00.243Z,70.39
2023-01-01T06:21:28.103Z,70.32
2023-01-01T06:23:56.760Z,70.55
2023-01-01T06:26:26.586Z,71.70
2023-01-01T06:28:54.075Z,70.83
2023-01-01T06:31:21.804Z,70.09
2023-01-01T06:33:50.796Z,70.38
2023-01-01T06:36:19.417Z,71.66
2023-01-01T06:38:48.216Z,71.41
2023-01-01T06:41:17.931Z,70.29
2023-01-01T06:43:45.715Z,70.40
2023-01-01T06:46:26.097Z,70.03
2023-01-01T06:48:55.301Z,70.67
2023-01-01T06:51:24.187Z,72.37
2023-01-01T06:53:51.616Z,71.12
2023-01-01T06:56:19.405Z,69.98
2023-01-01T06:58:46.798Z,70.71
2023-01-01T07:01:18.520Z,70.91
2023-01-01T07:03:51.158Z,70.74
2023-01-01T07:06:18.614Z,70.82
2023-01-01T07:08:46.246Z,70.65
2023-01-01T07:11:13.651Z,71.51
2023-01-01T07:13:41.137Z,71.13
2023-01-01T07:16:13.226Z,70.94
2023-01-01T07:18:41.116Z,70.95
2023-01-01T07:21:29.554Z,70.97
2023-01-01T07:23:58.858Z,71.18
2023-01-01T07:26:26.812Z,71.25
2023-01-01T07:28:54.230Z,68.05
2023-01-01T07:31:21.682Z,70.26
2023-01-01T07:33:49.358Z,72.87
2023-01-01T07:36:16.903Z,71.04
2023-01-01T07:38:44.284Z,69.71
2023-01-01T07:41:11.939Z,70.50
2023-01-01T07:43:39.289Z,70.78
2023-01-01T07:46:06.776Z,70.74
2023-01-01T07:48:39.751Z,70.17
2023-01-01T07:51:07.571Z,69.61
2023-01-01T07:53:35.194Z,69.73
2023-01-01T07:56:02.613Z,69.40
2023-01-01T07:58:29.981Z,69.13
2023-01-01T08:00:57.654Z,69.11
2023-01-01T08:03:25.273Z,68.51
2023-01-01T08:05:52.807Z,69.39
2023-01-01T08:08:20.176Z,67.94
2023-01-01T08:10:47.786Z,66.64
2023-01-01T08:13:15.145Z,67.59
2023-01-01T08:15:42.552Z,67.04
2023-01-01T08:18:10.187Z,68.09
2023-01-01T08:20:37.577Z,67.82
2023-01-01T08:23:07.630Z,69.61
2023-01-01T08:25:35.487Z,68.74
2023-01-01T08:28:02.906Z,68.36
2023-01-01T08:30:30.236Z,68.46
2023-01-01T08:32:57.852Z,68.57
2023-01-01T08:35:25.270Z,67.81
2023-01-01T08:37:52.726Z,67.79
2023-01-01T08:40:20.422Z,67.96
2023-01-01T08:42:47.816Z,67.28
2023-01-01T08:45:15.267Z,67.32
2023-01-01T08:47:43.500Z,66.87
2023-01-01T08:50:10.895Z,66.91
2023-01-01T08:52:38.304Z,66.62
2023-01-01T08:55:06.349Z,66.24
2023-01-01T08:57:33.727Z,66.89
2023-01-01T09:00:01.080Z,67.22
2023-01-01T09:02:28.870Z,66.89
2023-01-01T09:04:56.446Z,66.17
2023-01-01T09:07:23.798Z,66.88
2023-01-01T09:09:51.386Z,66.49
2023-01-01T09:12:18.906Z,66.06
2023-01-01T09:14:49.301Z,67.47
2023-01-01T09:17:16.970Z,67.11
2023-01-01T09:19:44.413Z,69.10
2023-01-01T09:22:12.069Z,68.38
2023-01-01T09:24:39.779Z,69.02
2023-01-01T09:27:07.157Z,69.33
2023-01-01T09:29:34.481Z,74.18
2023-01-01T09:32:02.211Z,75.04
2023-01-01T09:34:29.686Z,73.48
2023-01-01T09:36:57.003Z,72.93
2023-01-01T09:39:24.628Z,71.71
2023-01-01T09:42:07.033Z,71.45
2023-01-01T09:45:22.895Z,72.34
2023-01-01T09:47:53.562Z,72.83
2023-01-01T09:50:28.185Z,75.87
2023-01-01T09:53:01.153Z,77.12
2023-01-01T09:55:42.953Z,76.58
2023-01-01T09:58:11.197Z,75.96
2023-01-01T10:00:41.655Z,74.03
2023-01-01T10:03:53.893Z,78.66
2023-01-01T10:06:33.925Z,81.41
2023-01-01T10:09:13.821Z,77.00
2023-01-01T10:11:55.999Z,75.95
2023-01-01T10:14:37.471Z,73.02
2023-01-01T10:17:17.655Z,75.46
2023-01-01T10:19:50.880Z,72.03
2023-01-01T10:22:22.942Z,74.70
2023-01-01T10:25:01.225Z,75.03
2023-01-01T10:27:58.932Z,73.97
2023-01-01T10:30:27.558Z,74.65
2023-01-01T10:32:55.449Z,73.90
2023-01-01T10:35:31.338Z,73.44
2023-01-01T10:37:59.338Z,72.49
2023-01-01T10:40:27.955Z,71.18
2023-01-01T10:42:56.957Z,77.26
2023-01-01T10:45:35.543Z,78.03
2023-01-01T10:48:20.085Z,76.69
2023-01-01T10:50:51.644Z,75.34
2023-01-01T10:53:39.207Z,74.29
2023-01-01T10:56:13.480Z,72.87
2023-01-01T10:58:50.990Z,72.76
2023-01-01T11:01:18.537Z,78.54
2023-01-01T11:03:56.520Z,77.57
2023-01-01T11:06:37.797Z,77.70
2023-01-01T11:09:23.365Z,75.73
2023-01-01T11:12:38.396Z,74.06
2023-01-01T11:15:01.690Z,75.32
2023-01-01T11:17:30.627Z,73.43
2023-01-01T11:20:02.163Z,76.10
2023-01-01T11:22:53.126Z,74.41
2023-01-01T11:25:28.487Z,76.41
2023-01-01T11:28:21.933Z,78.10
2023-01-01T11:31:15.453Z,75.23
2023-01-01T11:33:53.196Z,75.66
2023-01-01T11:36:21.939Z,72.51
2023-01-01T11:38:51.324Z,72.93
2023-01-01T11:41:18.921Z,70.20
2023-01-01T11:43:46.315Z,71.81
2023-01-01T11:46:18.205Z,70.31
2023-01-01T11:48:45.594Z,69.84
2023-01-01T11:51:31.594Z,68.36
2023-01-01T11:54:36.137Z,68.65
2023-01-01T11:57:14.745Z,68.70
2023-01-01T11:59:58.557Z,68.83
2023-01-01T12:02:37.224Z,71.99
2023-01-01T12:05:20.736Z,71.55
2023-01-01T12:07:48.195Z,71.34
2023-01-01T12:10:26.987Z,70.18
2023-01-01T12:13:06.398Z,70.29
2023-01-01T12:15:39.100Z,72.47
2023-01-01T12:18:20.853Z,74.14
2023-01-01T12:20:49.455Z,71.69
2023-01-01T12:23:16.924Z,72.23
2023-01-01T12:25:46.712Z,74.25
2023-01-01T12:28:42.197Z,74.94
2023-01-01T12:31:22.832Z,75.73
2023-01-01T12:34:11.910Z,78.57
2023-01-01T12:36:47.973Z,76.95
2023-01-01T12:39:30.799Z,75.87
2023-01-01T12:42:26.316Z,74.89
2023-01-01T12:45:15.075Z,73.55
2023-01-01T12:47:55.809Z,74.04
2023-01-01T12:50:26.271Z,74.19
2023-01-01T12:53:03.656Z,71.78
2023-01-01T12:55:41.264Z,72.26
2023-01-01T12:58:13.286Z,72.13
2023-01-01T13:00:42.166Z,73.63
2023-01-01T13:03:19.456Z,72.09
2023-01-01T13:05:51.611Z,72.01
2023-01-01T13:08:18.944Z,74.41
2023-01-01T13:10:47.581Z,72.09
2023-01-01T13:13:14.987Z,71.99
2023-01-01T13:15:45.808Z,70.27
2023-01-01T13:18:13.277Z,70.67
2023-01-01T13:20:54.461Z,70.42
2023-01-01T13:23:34.768Z,69.96
2023-01-01T13:26:17.777Z,69.03
2023-01-01T13:28:51.199Z,69.62
2023-01-01T13:31:18.941Z,68.86
2023-01-01T13:33:46.918Z,72.20
2023-01-01T13:36:20.150Z,72.54
2023-01-01T13:38:57.975Z,74.57
2023-01-01T13:41:25.235Z,72.82
2023-01-01T13:44:04.851Z,73.36
2023-01-01T13:46:40.962Z,70.91
2023-01-01T13:49:27.236Z,72.32
2023-01-01T13:52:06.890Z,71.46
2023-01-01T13:54:41.564Z,70.01
2023-01-01T13:57:30.235Z,74.76
2023-01-01T14:00:14.881Z,70.27
2023-01-01T14:02:48.596Z,68.14
2023-01-01T14:05:47.820Z,72.16
2023-01-01T14:08:32.413Z,71.04
2023-01-01T14:11:03.467Z,70.01
2023-01-01T14:13:33.869Z,70.27
2023-01-01T14:16:02.601Z,69.16
2023-01-01T14:18:50.605Z,67.74
2023-01-01T14:21:19.613Z,68.83
2023-01-01T14:23:51.601Z,69.13
2023-01-01T14:26:20.542Z,71.70
2023-01-01T14:28:47.937Z,70.95
2023-01-01T14:31:36.676Z,70.74
2023-01-01T14:34:14.239Z,69.62
2023-01-01T14:36:50.150Z,69.91
2023-01-01T14:39:32.501Z,68.57
2023-01-01T14:42:02.590Z,70.13
2023-01-01T14:44:41.473Z,70.73
2023-01-01T14:47:27.386Z,69.40
2023-01-01T14:49:57.673Z,70.69
2023-01-01T14:52:26.259Z,69.74
2023-01-01T14:54:53.630Z,68.29
2023-01-01T14:57:24.585Z,68.45
2023-01-01T14:59:54.588Z,69.59
2023-01-01T15:02:31.790Z,71.64
2023-01-01T15:04:59.306Z,70.96
2023-01-01T15:07:28.461Z,69.62
2023-01-01T15:10:00.398Z,71.57
2023-01-01T15:12:28.132Z,70.16
2023-01-01T15:14:58.114Z,70.56
2023-01-01T15:17:26.159Z,73.28
2023-01-01T15:20:20.350Z,71.74
2023-01-01T15:22:47.771Z,71.86
2023-01-01T15:25:16.267Z,71.93
2023-01-01T15:27:47.594Z,71.03
2023-01-01T15:30:31.463Z,71.28
2023-01-01T15:33:09.054Z,70.42
2023-01-01T15:35:37.935Z,70.62
2023-01-01T15:38:24.576Z,70.04
2023-01-01T15:40:53.821Z,70.04
2023-01-01T15:43:22.176Z,69.70
2023-01-01T15:45:56.121Z,69.13
2023-01-01T15:48:37.633Z,68.22
2023-01-01T15:51:12.011Z,69.17
2023-01-01T15:53:49.128Z,68.92
2023-01-01T15:56:16.514Z,68.72
2023-01-01T15:58:53.867Z,70.05
2023-01-01T16:01:23.560Z,70.61
2023-01-01T16:03:52.342Z,68.19
2023-01-01T16:06:20.425Z,73.17
2023-01-01T16:08:47.795Z,73.08
2023-01-01T16:11:15.436Z,71.15
2023-01-01T16:13:42.907Z,73.58
2023-01-01T16:16:29.321Z,74.38
2023-01-01T16:18:57.192Z,72.63
2023-01-01T16:21:27.108Z,73.96
2023-01-01T16:23:54.861Z,73.51
2023-01-01T16:26:22.532Z,73.28
2023-01-01T16:28:50.105Z,74.45
2023-01-01T16:31:24.011Z,77.72
2023-01-01T16:33:56.103Z,77.16
2023-01-01T16:36:23.689Z,77.62
2023-01-01T16:38:51.074Z,75.45
2023-01-01T16:41:18.739Z,78.18
2023-01-01T16:43:46.381Z,75.77
2023-01-01T16:46:14.086Z,75.73
2023-01-01T16:48:42.000Z,77.69
2023-01-01T16:51:20.756Z,77.15
2023-01-01T16:53:48.823Z,74.41
2023-01-01T16:56:16.423Z,74.58
2023-01-01T16:58:55.334Z,74.41
2023-01-01T17:01:25.919Z,73.20
2023-01-01T17:03:53.403Z,75.77
2023-01-01T17:06:20.856Z,74.62
2023-01-01T17:08:48.513Z,77.14
2023-01-01T17:11:17.055Z,78.28
2023-01-01T17:13:46.438Z,75.37
2023-01-01T17:16:21.411Z,77.95
2023-01-01T17:21:40.723Z,78.00
2023-01-01T17:24:08.152Z,78.28
2023-01-01T17:26:35.535Z,76.26
2023-01-01T17:29:03.433Z,77.18
2023-01-01T17:31:31.229Z,75.98
2023-01-01T17:33:58.959Z,76.70
2023-01-01T17:36:29.524Z,79.56
2023-01-01T17:38:56.947Z,77.45
2023-01-01T17:41:24.449Z,76.78
2023-01-01T17:43:52.865Z,77.31
2023-01-01T17:46:25.866Z,78.69
2023-01-01T17:48:53.869Z,76.98
2023-01-01T17:51:21.498Z,78.48
2023-01-01T17:53:49.021Z,77.89
2023-01-01T17:56:17.599Z,79.29
2023-01-01T17:58:45.609Z,81.12
2023-01-01T18:01:13.086Z,77.01
2023-01-01T18:03:41.016Z,75.73
2023-01-01T18:06:08.465Z,76.69
2023-01-01T18:08:35.871Z,78.48
2023-01-01T18:11:03.521Z,77.46
2023-01-01T18:13:33.194Z,78.61
2023-01-01T18:16:01.486Z,77.48
2023-01-01T18:18:30.918Z,77.05
2023-01-01T18:21:05.080Z,77.19
2023-01-01T18:23:33.886Z,79.19
2023-01-01T18:26:01.969Z,77.96
2023-01-01T18:28:29.611Z,77.70
2023-01-01T18:31:04.894Z,77.56
2023-01-01T18:33:33.449Z,79.20
2023-01-01T18:36:09.159Z,75.76
2023-01-01T18:38:36.543Z,76.49
2023-01-01T18:41:20.003Z,75.45
2023-01-01T18:43:47.465Z,76.28
2023-01-01T18:46:15.178Z,76.89
2023-01-01T18:48:42.837Z,77.79
2023-01-01T18:51:14.759Z,81.59
2023-01-01T18:53:42.431Z,82.98
2023-01-01T18:56:11.467Z,80.25
2023-01-01T18:58:40.551Z,77.12
2023-01-01T19:01:17.009Z,76.91
2023-01-01T19:03:48.811Z,75.60
2023-01-01T19:06:26.228Z,76.88
2023-01-01T19:09:16.348Z,76.91
2023-01-01T19:11:44.029Z,76.48
2023-01-01T19:14:16.147Z,74.17
2023-01-01T19:16:44.662Z,76.33
2023-01-01T19:19:18.911Z,75.25
2023-01-01T19:21:51.585Z,78.97
2023-01-01T19:24:24.154Z,81.22
2023-01-01T19:27:00.183Z,78.30
2023-01-01T19:29:29.439Z,80.81
2023-01-01T19:31:57.768Z,82.83
2023-01-01T19:34:25.351Z,78.06
2023-01-01T19:36:52.929Z,77.24
2023-01-01T19:39:20.541Z,78.94
2023-01-01T19:41:47.866Z,78.16
2023-01-01T19:44:19.905Z,78.61
2023-01-01T19:46:49.621Z,80.09
2023-01-01T19:49:17.165Z,78.74
2023-01-01T19:51:44.572Z,77.28
2023-01-01T19:54:12.183Z,78.36
2023-01-01T19:56:39.633Z,78.86
2023-01-01T19:59:07.925Z,77.71
2023-01-01T20:01:36.056Z,77.14
2023-01-01T20:04:04.057Z,79.77
2023-01-01T20:06:33.932Z,78.37
2023-01-01T20:09:01.348Z,77.84
2023-01-01T20:11:31.778Z,81.58
2023-01-01T20:13:59.216Z,81.58
2023-01-01T20:16:26.626Z,81.87
2023-01-01T20:18:54.295Z,76.82
2023-01-01T20:21:40.323Z,79.66
2023-01-01T20:24:07.892Z,78.98
2023-01-01T20:26:35.130Z,80.49
2023-01-01T20:29:21.068Z,81.63
2023-01-01T20:31:49.929Z,80.83
2023-01-01T20:34:17.549Z,77.84
2023-01-01T20:37:04.786Z,81.82
2023-01-01T20:39:32.588Z,78.84
2023-01-01T20:41:59.986Z,80.57
2023-01-01T20:44:27.502Z,77.94
2023-01-01T20:46:55.118Z,76.58
2023-01-01T20:49:22.579Z,77.56
2023-01-01T20:51:51.473Z,79.33
2023-01-01T20:54:19.926Z,79.63
2023-01-01T20:56:47.348Z,79.67
2023-01-01T20:59:35.375Z,78.61
2023-01-01T21:02:05.806Z,80.23
2023-01-01T21:04:38.420Z,81.54
2023-01-01T21:07:07.831Z,80.97
2023-01-01T21:09:35.192Z,79.14
2023-01-01T21:12:02.595Z,78.97
2023-01-01T21:14:30.257Z,78.97
2023-01-01T21:16:57.655Z,81.88
2023-01-01T21:19:27.359Z,80.74
2023-01-01T21:21:55.821Z,80.48
2023-01-01T21:24:28.322Z,77.72
2023-01-01T21:27:00.354Z,80.83
2023-01-01T21:29:27.939Z,80.75
2023-01-01T21:32:28.686Z,77.93
2023-01-01T21:34:56.178Z,77.60
2023-01-01T21:37:50.775Z,77.65
2023-01-01T21:40:52.188Z,76.29
2023-01-01T21:43:31.610Z,76.41
2023-01-01T21:46:07.792Z,77.04
2023-01-01T21:48:39.360Z,76.43
2023-01-01T21:51:34.040Z,80.36
2023-01-01T21:54:32.215Z,80.65
2023-01-01T21:57:01.362Z,77.88
2023-01-01T21:59:39.808Z,76.08
2023-01-01T22:02:07.230Z,79.29
2023-01-01T22:04:39.707Z,80.40
2023-01-01T22:07:55.895Z,80.50
2023-01-01T22:10:15.684Z,76.96
2023-01-01T22:12:43.119Z,79.56
2023-01-01T22:15:26.103Z,78.26
2023-01-01T22:18:23.737Z,77.66
2023-01-01T22:20:51.939Z,79.41
2023-01-01T22:23:19.167Z,80.40
2023-01-01T22:25:46.814Z,81.04
2023-01-01T22:28:17.905Z,78.27
2023-01-01T22:30:45.287Z,80.06
2023-01-01T22:33:25.695Z,79.29
2023-01-01T22:35:55.641Z,77.82
2023-01-01T22:38:25.274Z,84.46
2023-01-01T22:40:52.885Z,82.64
2023-01-01T22:43:36.216Z,80.97
2023-01-01T22:46:10.044Z,79.63
2023-01-01T22:48:37.916Z,77.88
2023-01-01T22:51:18.218Z,78.09
2023-01-01T22:53:45.584Z,81.72
2023-01-01T22:56:13.650Z,82.79
2023-01-01T22:58:41.020Z,79.63
2023-01-01T23:01:08.580Z,77.49
2023-01-01T23:03:36.326Z,79.62
2023-01-01T23:06:03.776Z,79.52
2023-01-01T23:08:31.268Z,78.38
2023-01-01T23:10:59.286Z,78.30
2023-01-01T23:13:45.664Z,78.68
2023-01-01T23:16:13.291Z,79.62
2023-01-01T23:18:40.656Z,78.75
2023-01-01T23:21:09.763Z,78.07
2023-01-01T23:23:37.421Z,78.29
2023-01-01T23:26:05.149Z,76.34
2023-01-01T23:28:32.734Z,78.89
2023-01-01T23:31:00.591Z,79.16
2023-01-01T23:33:28.988Z,78.26
2023-01-01T23:35:56.492Z,77.44
2023-01-01T23:38:24.158Z,79.24
2023-01-01T23:40:51.554Z,80.60
2023-01-01T23:43:18.911Z,79.43
2023-01-01T23:45:46.809Z,79.14
2023-01-01T23:48:14.202Z,81.58
2023-01-01T23:50:41.638Z,79.68
2023-01-01T23:53:09.455Z,77.76
2023-01-01T23:55:36.867Z,80.17
2023-01-01T23:58:04.184Z,79.87
